• Join FlightAware (Why Join?)
  • Login
  • US Flag 
05:27AM EST


 

Airport Tracker/Info


-or-


 

Live Flight TrackerFlight Track Log ✈ ASQ5745 ✈ 25-May-2013 ✈ KIAD - KALB

Flight Track Log - Related Links

Times and Time Zones

All times are in EDT time to prevent confusion due to time zone crossing. See the ASQ5745 flight status page for this flight to view local times or setup timezone preferences in your user account.

Time Position Orientation Groundspeed Altitude Reporting Facility
EDT Latitude Longitude Course Direction KTS MPH feet Rate Location/Type
08:28AM 38.9667 -77.4333 90° East 166 191 2,100  Level Potomac TRACON
08:29AM 39.0333 -77.4500 349° North 227 261 3,600 2,368 Climbing Potomac TRACON
08:30AM 39.0833 -77.4500 360° North 238 274 6,600 3,056 Climbing Potomac TRACON
08:31AM 38.9931 -77.1108 72° East  Level FlightAware Approximate
08:31AM 39.1500 -77.4000 30° Northeast 261 300 9,100  Level Potomac TRACON
08:32AM 39.0167 -76.9981 90° East  Level FlightAware Approximate
08:32AM 39.1667 -77.3000 78° East 344 396 10,100  Level Potomac TRACON
08:33AM 39.0332 -76.8840 72° East  Level FlightAware Approximate
08:33AM 39.1167 -77.1833 119° Southeast 398 458 11,400  Level Potomac TRACON
08:34AM 39.0500 -76.7699 90° East  Level FlightAware Approximate
08:34AM 39.0833 -77.0500 108° East 403 464 13,300  Level Potomac TRACON
08:36AM 39.0908 -76.7817 88° East 414 476 16,700 1,581 Climbing Washington Center
08:37AM 39.1047 -76.6428 83° East 402 463 18,200 1,500 Climbing Washington Center
08:38AM 39.1206 -76.4986 82° East 402 463 19,700 1,424 Climbing Washington Center
08:39AM 39.1339 -76.3517 83° East 407 468 21,000 1,109 Climbing Washington Center
08:40AM 39.1514 -76.1992 82° East 413 475 21,900 850 Climbing Washington Center
08:41AM 39.1750 -76.0467 79° East 418 481 22,700 843 Climbing Washington Center
08:42AM 39.1944 -75.8889 81° East 436 502 23,600 992 Climbing Washington Center
08:43AM 39.2675 -75.7819 49° Northeast 396 456 24,700 694 Climbing Washington Center
08:44AM 39.3447 -75.6800 46° Northeast 396 456 25,000 151 Climbing Washington Center
08:45AM 39.4239 -75.5836 43° Northeast 386 444 25,000  Level Washington Center
08:46AM 39.4969 -75.4867 46° Northeast 381 438 25,000  Level Washington Center
08:48AM 39.6542 -75.2819 45° Northeast 367 422 25,000  Level New York Center
08:49AM 39.7222 -75.1864 47° Northeast 367 422 25,000  Level New York Center
08:50AM 39.7953 -75.0775 49° Northeast 362 417 25,000  Level New York Center
08:51AM 39.8656 -74.9792 47° Northeast 362 417 25,000  Level New York Center
08:52AM 39.9356 -74.8806 47° Northeast 362 417 25,000  Level New York Center
08:53AM 40.0100 -74.7792 46° Northeast 362 417 25,000 -51 Level New York Center
08:54AM 40.0819 -74.6831 46° Northeast 362 417 24,900  Descending New York Center
08:55AM 40.1478 -74.5833 49° Northeast 362 417 25,000 50 Climbing New York Center
08:56AM 40.2178 -74.4839 47° Northeast 362 417 25,000  Level New York Center
08:57AM 40.2956 -74.3956 41° Northeast 362 417 25,000 -49 Level New York Center
08:58AM 40.3753 -74.3100 39° Northeast 362 417 24,900 -356 Descending New York Center
08:59AM 40.4569 -74.2242 39° Northeast 368 423 24,300 -508 Descending New York Center
09:00AM 40.5367 -74.1353 40° Northeast 368 423 23,900 -94 Descending New York Center
09:03AM 40.7189 -73.9461 38° Northeast 376 433 24,000 31 Climbing Boston Center
09:04AM 40.7992 -73.8575 40° Northeast 376 433 24,000  Level Boston Center
09:05AM 40.8733 -73.7603 45° Northeast 376 433 24,000 -50 Level Boston Center
09:06AM 40.9536 -73.6658 42° Northeast 376 433 23,900 -500 Descending Boston Center
09:07AM 41.0558 -73.6511 North 356 410 23,000 -550 Descending Boston Center
09:08AM 41.1581 -73.6394 North 356 410 22,800 -800 Descending Boston Center
09:09AM 41.2647 -73.6275 North 369 425 21,400 -1,350 Descending Boston Center
09:10AM 41.3628 -73.6156 North 369 425 20,100 -1,200 Descending Boston Center
09:11AM 41.4608 -73.6036 North 363 418 19,000 -550 Descending Boston Center
09:12AM 41.5461 -73.5967 North 347 399 19,000  Level Boston Center
09:13AM 41.6528 -73.5792 North 353 406 19,000 -500 Level Boston Center
09:14AM 41.7467 -73.5725 North 359 413 18,000 -1,600 Descending Boston Center
09:15AM 41.8550 -73.5578 North 365 420 15,800 -2,176 Descending Boston Center
09:15AM 41.9094 -73.5503 North 358 412 14,700 -1,900 Descending Boston Center
09:16AM 41.9428 -73.5481 North 360 414 13,900 -1,745 Descending Boston Center
09:16AM 41.9886 -73.5406 North 342 394 13,100 -1,800 Descending Boston Center
09:17AM 42.0469 -73.5333 North 343 395 12,100 -1,900 Descending Boston Center
09:17AM 42.0908 -73.5311 North 334 384 11,200 -1,100 Descending Boston Center
09:18AM 42.1344 -73.5431 349° North 327 376 11,000 -197 Descending Boston Center
09:18AM 42.1697 -73.5633 337° Northwest 290 334 11,000  Level Boston Center
09:19AM 42.2092 -73.5892 334° Northwest 301 346 11,000 -800 Level Boston Center
09:19AM 42.2403 -73.6067 337° Northwest 276 318 10,200 -1,800 Descending Boston Center
09:20AM 42.2794 -73.6328 334° Northwest 289 333 9,200 -1,967 Descending Boston Center
09:20AM 42.3106 -73.6531 334° Northwest 276 318 8,200 -2,000 Descending Boston Center
09:21AM 42.3375 -73.6675 338° Northwest 268 308 7,200 -2,164 Descending Boston Center
09:21AM 42.3747 -73.6878 338° Northwest 247 284 6,000 -2,090 Descending Boston Center
09:22AM 42.4286 -73.7228 334° Northwest 207 238 4,100 -992 Descending Boston Center
09:23AM 42.4719 -73.7489 336° Northwest 171 197 4,000 -595 Descending Boston Center
09:24AM 42.5156 -73.7753 336° Northwest 172 198 2,900 -694 Descending Boston Center
09:25AM 42.5611 -73.7986 339° North 158 182 2,600 -148 Descending Boston Center
09:26AM 42.6028 -73.8025 356° North 145 167 2,600  Level Boston Center